• Join FlightAware (Why Join?)
  • Login
  • US Flag 
03:58PM EDT


 

Airport Tracker/Info


-or-


 

Live Flight TrackerFlight Track Log ✈ LXJ523 ✈ 14-May-2013 ✈ CYYZ - KSUS

Flight Track Log - Related Links

Times and Time Zones

All times are in EDT time to prevent confusion due to time zone crossing. See the LXJ523 flight status page for this flight to view local times or setup timezone preferences in your user account.

Time Position Orientation Groundspeed Altitude Reporting Facility
EDT Latitude Longitude Course Direction KTS MPH feet Rate Location/Type
12:51PM 43.6500 -79.6833 241° Southwest 180 207 3,500  Level Toronto Center
12:52PM 43.6167 -79.7667 241° Southwest 250 288 7,400 4,380 Climbing Toronto Center
12:53PM 43.5667 -79.8333 224° Southwest 290 334 12,300 4,020 Climbing Toronto Center
12:54PM 43.5000 -79.9167 222° Southwest 330 380 15,500 3,420 Climbing Toronto Center
12:55PM 43.4167 -80.0000 216° Southwest 370 426 19,200 3,480 Climbing Toronto Center
12:56PM 43.3333 -80.0833 216° Southwest 380 437 22,500 2,940 Climbing Toronto Center
12:57PM 43.2500 -80.2000 226° Southwest 410 472 25,100 2,100 Climbing Toronto Center
12:58PM 43.1667 -80.3167 226° Southwest 450 518 26,800 1,500 Climbing Toronto Center
12:59PM 43.0500 -80.4333 216° Southwest 470 541 28,100 1,620 Climbing Toronto Center
01:00PM 42.9667 -80.5500 226° Southwest 450 518 30,100 1,440 Climbing Toronto Center
01:01PM 42.8833 -80.6500 221° Southwest 450 518 31,000 480 Climbing Toronto Center
01:02PM 42.8122 -80.7644 230° Southwest 467 537 31,000 540 Level Cleveland Center
01:03PM 42.7119 -80.8828 221° Southwest 474 545 32,000 1,380 Climbing Cleveland Center
01:04PM 42.6011 -80.9922 216° Southwest 487 560 33,800 1,620 Climbing Cleveland Center
01:05PM 42.4861 -81.1039 216° Southwest 510 587 35,300 1,200 Climbing Cleveland Center
01:06PM 42.3878 -81.1989 216° Southwest 503 579 36,300 3,840 Climbing Cleveland Center
01:07PM 42.2767 -81.3044 215° Southwest 496 571 43,000 1,800 Climbing Cleveland Center
01:08PM 42.1944 -81.4211 226° Southwest 460 529 40,000 -900 Descending Cleveland Center
01:09PM 42.1331 -81.5575 239° Southwest 427 491 41,300 1,140 Climbing Cleveland Center
01:10PM 42.0756 -81.6936 240° Southwest 427 491 42,300 840 Climbing Cleveland Center
01:11PM 42.0136 -81.8322 239° Southwest 427 491 43,000 300 Climbing Cleveland Center
01:12PM 41.9517 -81.9681 239° Southwest 427 491 43,000  Level Cleveland Center
01:13PM 41.8894 -82.1033 238° Southwest 427 491 43,000  Level Cleveland Center
01:14PM 41.8186 -82.2522 237° Southwest 427 491 43,000  Level Cleveland Center
01:15PM 41.7561 -82.3897 239° Southwest 427 491 43,000  Level Cleveland Center
01:16PM 41.6956 -82.5214 238° Southwest 427 491 43,000  Level Cleveland Center
01:17PM 41.6347 -82.6614 240° Southwest 427 491 43,000  Level Cleveland Center
01:18PM 41.5717 -82.7953 238° Southwest 427 491 43,000  Level Cleveland Center
01:19PM 41.5086 -82.9289 238° Southwest 433 498 43,000  Level Cleveland Center
01:20PM 41.4453 -83.0653 238° Southwest 428 493 43,000  Level Cleveland Center
01:21PM 41.3797 -83.1956 236° Southwest 428 493 43,000  Level Cleveland Center
01:22PM 41.3183 -83.3314 239° Southwest 428 493 43,000  Level Cleveland Center
01:24PM 41.2108 -83.5644 239° Southwest 426 490 43,000  Level Chicago Center
01:24PM 41.1844 -83.6211 238° Southwest 429 494 43,000  Level Indianapolis Center
01:25PM 41.1475 -83.6986 238° Southwest 428 493 43,000  Level Chicago Center
01:25PM 41.1203 -83.7547 237° Southwest 428 493 43,000  Level Indianapolis Center
01:26PM 41.0567 -83.8881 238° Southwest 426 490 43,000  Level Indianapolis Center
01:27PM 40.9925 -84.0214 238° Southwest 427 491 43,000  Level Indianapolis Center
01:28PM 40.9283 -84.1511 237° Southwest 423 487 43,000  Level Indianapolis Center
01:29PM 40.8808 -84.2489 237° Southwest 419 482 43,000  Level Chicago Center
01:29PM 40.8664 -84.2792 238° Southwest 416 479 43,000  Level Indianapolis Center
01:30PM 40.8186 -84.3764 237° Southwest 415 478 43,000  Level Chicago Center
01:31PM 40.7561 -84.5022 237° Southwest 410 472 43,000  Level Chicago Center
01:32PM 40.6933 -84.6292 237° Southwest 411 473 43,000  Level Chicago Center
01:33PM 40.6319 -84.7558 237° Southwest 411 473 43,000  Level Chicago Center
01:34PM 40.5839 -84.8550 237° Southwest 415 478 43,000  Level Indianapolis Center
01:35PM 40.5092 -85.0033 237° Southwest 416 479 43,000  Level Indianapolis Center
01:36PM 40.4447 -85.1319 237° Southwest 418 481 43,000  Level Indianapolis Center
01:36PM 40.4286 -85.1656 238° Southwest 418 481 43,000  Level Chicago Center
01:37PM 40.3639 -85.2917 236° Southwest 416 479 43,000  Level Chicago Center
01:38PM 40.3164 -85.3889 237° Southwest 418 481 43,000  Level Indianapolis Center
01:38PM 40.2997 -85.4194 234° Southwest 419 482 43,000  Level Chicago Center
01:39PM 40.2361 -85.5464 237° Southwest 418 481 43,000  Level Chicago Center
01:40PM 40.1711 -85.6742 236° Southwest 419 482 43,000 -60 Level Chicago Center
01:41PM 40.1214 -85.7719 236° Southwest 420 483 42,900 -60 Descending Indianapolis Center
01:42PM 40.0558 -85.9006 236° Southwest 422 486 42,900  Level Indianapolis Center
01:43PM 39.9892 -86.0294 236° Southwest 420 483 43,000  Climbing Indianapolis Center
01:44PM 39.9242 -86.1561 236° Southwest 420 483 43,000  Level Indianapolis Center
01:44PM 39.8983 -86.2056 236° Southwest 422 486 43,000  Level Chicago Center
01:45PM 39.8325 -86.3325 236° Southwest 423 487 43,000  Level Chicago Center
01:46PM 39.8042 -86.4453 252° West 410 472 43,000  Level Indianapolis Center
01:47PM 39.7808 -86.5889 258° West 406 467 43,000  Level Indianapolis Center
01:48PM 39.7583 -86.7328 259° West 405 466 43,000 -660 Level Indianapolis Center
01:49PM 39.7353 -86.8792 258° West 411 473 41,700 -1,320 Descending Indianapolis Center
01:50PM 39.7133 -87.0231 259° West 409 471 40,300 -900 Descending Indianapolis Center
01:51PM 39.6911 -87.1625 258° West 399 459 39,900 -960 Descending Indianapolis Center
01:52PM 39.6661 -87.3081 257° West 409 471 38,400 -1,620 Descending Indianapolis Center
01:53PM 39.6286 -87.4814 254° West 415 478 36,600 -1,620 Descending Indianapolis Center
01:54PM 39.5847 -87.6219 248° West 419 482 35,100 -1,500 Descending Indianapolis Center
01:55PM 39.5422 -87.7625 249° West 419 482 33,600 -1,560 Descending Indianapolis Center
01:57PM 39.4928 -87.9317 249° West 418 481 31,800 -1,560 Descending Kansas City Center
01:58PM 39.4589 -88.0775 253° West 428 493 30,300 -1,500 Descending Kansas City Center
01:59PM 39.4406 -88.2258 261° West 424 488 28,800 -1,500 Descending Kansas City Center
02:00PM 39.4228 -88.3767 261° West 423 487 27,200 -1,620 Descending Kansas City Center
02:01PM 39.4044 -88.5275 261° West 424 488 25,500 -1,740 Descending Kansas City Center
02:02PM 39.3836 -88.6850 260° West 425 489 23,700 -1,680 Descending Kansas City Center
02:03PM 39.3656 -88.8278 261° West 411 473 22,100 -1,500 Descending Kansas City Center
02:04PM 39.3478 -88.9672 261° West 399 459 20,600 -1,500 Descending Kansas City Center
02:05PM 39.3303 -89.1006 260° West 385 443 19,100 -1,680 Descending Kansas City Center
02:06PM 39.3100 -89.2561 260° West 372 428 17,200 -1,620 Descending Kansas City Center
02:07PM 39.2931 -89.3814 260° West 361 415 15,800 -1,380 Descending Kansas City Center
02:08PM 39.2769 -89.5058 261° West 356 410 14,400 -1,320 Descending Kansas City Center
02:09PM 39.2603 -89.6286 260° West 351 404 13,100 -1,200 Descending Kansas City Center
02:10PM 39.2333 -89.7456 253° West 356 410 12,000 -780 Descending Kansas City Center
02:11PM 39.1739 -89.8694 238° Southwest 353 406 11,500 -1,020 Descending Kansas City Center
02:12PM 39.1256 -89.9647 237° Southwest 302 348 9,900 -1,560 Descending Kansas City Center
02:13PM 39.0881 -90.0361 236° Southwest 260 299 8,300 -1,500 Descending Kansas City Center
02:14PM 39.0403 -90.1011 227° Southwest 258 297 6,900 -1,080 Descending Kansas City Center
02:15PM 38.9808 -90.1564 216° Southwest 264 304 6,100 -900 Descending Kansas City Center
02:16PM 38.9217 -90.2094 215° Southwest 262 302 5,100 -1,020 Descending Kansas City Center
02:17PM 38.8500 -90.2731 215° Southwest 261 300 4,100 -540 Descending Kansas City Center
02:18PM 38.7894 -90.3264 214° Southwest 262 302 4,000 -60 Descending Kansas City Center
02:19PM 38.7303 -90.3792 215° Southwest 262 302 4,000 -300 Level Kansas City Center
02:20PM 38.6942 -90.4369 231° Southwest 239 275 3,500 -780 Descending Kansas City Center
02:21PM 38.6814 -90.5136 258° West 202 232 2,400 -960 Descending Kansas City Center
02:22PM 38.6728 -90.5669 258° West 177 204 1,600 -720 Descending Kansas City Center
02:23PM 38.6667 -90.6047 258° West 138 159 1,000 -540 Descending Kansas City Center
02:24PM 38.6600 -90.6461 258° West 120 138 500 -540 Descending Kansas City Center